Portada
METAR-TAF:

METAR-TAF

Aeropuertos :

Humberside, Inglaterra

latitud: 53-35N, longitud: 000-21W, altitud: 31 m

Observación

El informe se hizo hace 38 minutos, a las 23:50 UTC
Viento 11 kt del este
Temperatura 11°C
Humedad 82%
Presión 1001 hPa
Visibilidad 10 km o más

METAR: EGNJ 302350Z AUTO 09011KT 9999 NCD 11/08 Q1001

Hora: 01:28 (00:28 UTC)

Pronóstico

El informe se hizo hace 1 hora y 32 minutos, a las 22:56 UTC
Pronóstico válido del 01 a las 00 UTC al 01 a las 09 UTC
Viento 14 kt del este
Visibilidad 10 km o más
Escasas nubes a una altura de 4500 ft
Temporalmente
del 01 a las 03 UTC al 01 a las 08 UTC
Visibilidad: 7000 m
Cielo nuboso a una altura de 800 ft
lluvia ligera

TAF: EGNJ 302256Z 0100/0109 10014KT 9999 FEW045 TEMPO 0103/0108 7000 -RA BKN008

Observaciones y pronósticos meteorológicos de más de 4000 aeropuertos (mensajes METAR y TAF).

Los puntos amarillos y rojos representan las estaciones disponibles.

Ponga el ratón en el punto deseado para ver el nombre de la estación.

Haga clic para ver las observaciones y los pronósticos meteorológicos.

Para cambiar el mapa : haga clic en los botones verdes con una cruz de color negro para hacer un zoom, en el botón verde con un guión para alejar o en las flechas verdes para mapas adyacentes.


METAR-TAF: